Andrew, Illinois
Current Conditions -  °F | °C
As of 3:52 PM on Monday 22 Dec 2014 (Local Time) from KSPI Reporting Station
Light Rain Light Rain  
Wind Chill: 41°   Ceiling: 600
Heat Index: 46°   Visibility: 3mi
Dew Point: 45°   Wind: 12mph
Humidity: 96%   Direction: 150°SSE
Pressure: 29.59"   Gusts: NA
Location:  39.854°N, 89.6295°W
Report Text: KSPI 222152Z 15010KT 3SM -RA BR OVC006 08/07 A2959 RMK AO2 RAE02B40 SLP022 P0000 T00780072
Loading
Personal Weather Stations






























Interactive Weather Map New forecast layout! Learn more

10-Day Weather Forecast

Advertisements
Track Severe Weather on mobile